Time;durP1;ratioP1;P1;durP2;ratioP2;P2;SDS_P1;SDS_P2;PMS_P1;PMS_P2;Temp;Humidity;BMP_temperature;BMP_pressure;BME280_temperature;BME280_humidity;BME280_pressure;Samples;Min_cycle;Max_cycle;Signal;HPM_P1;HPM_P2
2023/01/18 00:01:44;;;;;;;11.85;8.93;;;;;;;;;;5075258;28;20219;-66
2023/01/18 00:04:11;;;;;;;11.38;7.90;;;;;;;;;;5074088;28;20216;-66
2023/01/18 00:06:37;;;;;;;10.20;8.35;;;;;;;;;;5068976;28;20550;-66
2023/01/18 00:09:03;;;;;;;12.15;8.23;;;;;;;;;;5071692;28;20559;-66
2023/01/18 00:11:29;;;;;;;11.98;9.10;;;;;;;;;;5072905;28;20223;-66
2023/01/18 00:13:56;;;;;;;11.73;8.38;;;;;;;;;;5069889;28;20220;-66
2023/01/18 00:16:24;;;;;;;11.68;8.90;;;;;;;;;;5068725;28;20289;-66
2023/01/18 00:18:51;;;;;;;10.32;8.40;;;;;;;;;;5069888;28;20539;-66
2023/01/18 00:21:17;;;;;;;12.63;9.25;;;;;;;;;;5074064;28;20292;-66
2023/01/18 00:23:44;;;;;;;9.55;7.70;;;;;;;;;;5066855;28;20216;-66
2023/01/18 00:26:11;;;;;;;8.57;7.55;;;;;;;;;;5068743;28;20220;-66
2023/01/18 00:28:38;;;;;;;9.98;7.43;;;;;;;;;;5068567;28;20225;-66
2023/01/18 00:31:08;;;;;;;10.32;7.45;;;;;;;;;;5062542;28;20213;-66
2023/01/18 00:33:36;;;;;;;10.05;8.35;;;;;;;;;;5074399;28;20216;-66
2023/01/18 00:36:03;;;;;;;8.88;7.95;;;;;;;;;;5069287;28;20236;-66
2023/01/18 00:38:30;;;;;;;9.20;8.23;;;;;;;;;;5068461;28;20232;-66
2023/01/18 00:40:56;;;;;;;9.30;8.35;;;;;;;;;;5070892;28;20212;-66
2023/01/18 00:43:37;;;;;;;9.90;8.25;;;;;;;;;;5066752;28;20220;-66
2023/01/18 00:46:03;;;;;;;10.32;8.27;;;;;;;;;;5070429;28;20242;-66
2023/01/18 00:48:30;;;;;;;10.25;8.05;;;;;;;;;;5070226;28;20247;-66
2023/01/18 00:50:57;;;;;;;8.13;7.32;;;;;;;;;;5073168;28;20212;-66
2023/01/18 00:53:23;;;;;;;10.93;8.45;;;;;;;;;;5064034;28;20216;-66
2023/01/18 00:55:50;;;;;;;8.88;7.70;;;;;;;;;;5069499;28;20219;-66
2023/01/18 00:58:16;;;;;;;11.60;8.95;;;;;;;;;;5067010;28;20282;-66
2023/01/18 01:00:42;;;;;;;9.80;8.80;;;;;;;;;;5066238;28;20212;-66
2023/01/18 01:03:09;;;;;;;11.35;9.82;;;;;;;;;;5070169;28;20219;-66
2023/01/18 01:08:22;;;;;;;10.10;8.32;;;;;;;;;;5065177;28;20245;-66
2023/01/18 01:10:50;;;;;;;11.32;9.10;;;;;;;;;;5067401;28;20266;-66
2023/01/18 01:27:00;;;;;;;9.77;8.77;;;;;;;;;;5073151;28;20250;-66
2023/01/18 01:29:26;;;;;;;11.00;8.63;;;;;;;;;;5079092;28;20220;-66
2023/01/18 01:31:53;;;;;;;9.35;8.45;;;;;;;;;;5069954;28;20212;-66
2023/01/18 01:34:19;;;;;;;11.35;9.20;;;;;;;;;;5073815;28;20535;-66
2023/01/18 01:36:45;;;;;;;9.80;8.52;;;;;;;;;;5077199;28;20212;-66
2023/01/18 01:39:12;;;;;;;11.15;8.90;;;;;;;;;;5070333;28;20239;-66
2023/01/18 01:41:39;;;;;;;13.23;9.65;;;;;;;;;;5076201;28;20223;-66
2023/01/18 01:44:23;;;;;;;10.20;8.98;;;;;;;;;;5073609;28;20454;-66
2023/01/18 01:46:50;;;;;;;11.38;9.68;;;;;;;;;;5071463;28;20212;-66
2023/01/18 01:49:19;;;;;;;11.20;9.52;;;;;;;;;;5078885;28;20212;-66
2023/01/18 01:51:46;;;;;;;10.35;9.13;;;;;;;;;;5074868;28;20216;-66
2023/01/18 01:54:14;;;;;;;11.35;9.70;;;;;;;;;;5070864;28;20216;-66
2023/01/18 01:56:43;;;;;;;13.93;10.40;;;;;;;;;;5076104;28;20212;-66
2023/01/18 01:59:10;;;;;;;11.48;10.13;;;;;;;;;;5078946;28;20232;-66
2023/01/18 02:01:37;;;;;;;13.95;10.48;;;;;;;;;;5076921;28;20212;-66
2023/01/18 02:04:03;;;;;;;11.18;9.98;;;;;;;;;;5069171;28;20239;-66
2023/01/18 02:06:48;;;;;;;10.88;9.77;;;;;;;;;;5072005;28;20230;-66
2023/01/18 02:09:15;;;;;;;11.60;10.40;;;;;;;;;;5062520;28;20212;-67
2023/01/18 02:11:43;;;;;;;12.52;9.85;;;;;;;;;;5077081;28;20250;-66
2023/01/18 02:14:12;;;;;;;11.82;9.93;;;;;;;;;;5078739;28;20281;-66
2023/01/18 02:16:45;;;;;;;12.43;10.40;;;;;;;;;;5064551;28;20413;-67
2023/01/18 02:19:17;;;;;;;12.52;10.27;;;;;;;;;;5068153;28;20235;-66
2023/01/18 02:21:44;;;;;;;11.68;10.35;;;;;;;;;;5067647;28;20256;-66
2023/01/18 02:24:39;;;;;;;12.50;10.75;;;;;;;;;;5064757;28;20221;-66
2023/01/18 02:27:07;;;;;;;13.25;10.63;;;;;;;;;;5066241;28;20213;-66
2023/01/18 02:29:53;;;;;;;14.02;11.00;;;;;;;;;;5069675;28;20208;-66
2023/01/18 02:32:26;;;;;;;13.07;11.25;;;;;;;;;;5067889;28;20236;-66
2023/01/18 02:34:55;;;;;;;13.07;11.63;;;;;;;;;;5071181;28;20250;-66
2023/01/18 02:37:26;;;;;;;14.52;12.38;;;;;;;;;;5065256;28;20428;-66
2023/01/18 02:39:58;;;;;;;13.38;11.10;;;;;;;;;;5070449;28;20213;-66
2023/01/18 02:48:00;;;;;;;13.82;11.20;;;;;;;;;;5066269;28;20218;-66
2023/01/18 02:50:27;;;;;;;13.82;12.20;;;;;;;;;;5070358;28;20230;-66
2023/01/18 02:52:53;;;;;;;13.00;11.60;;;;;;;;;;5067893;28;20247;-66
2023/01/18 02:55:26;;;;;;;13.00;11.65;;;;;;;;;;5059101;28;20221;-66
2023/01/18 02:57:54;;;;;;;12.98;11.65;;;;;;;;;;5065226;28;20228;-66
2023/01/18 03:00:23;;;;;;;14.68;12.32;;;;;;;;;;5069169;28;20640;-66
2023/01/18 03:02:49;;;;;;;16.20;12.52;;;;;;;;;;5072813;28;20232;-66
2023/01/18 03:05:16;;;;;;;14.40;12.35;;;;;;;;;;5069288;28;20282;-66
2023/01/18 03:07:45;;;;;;;14.13;12.45;;;;;;;;;;5064024;28;20216;-66
2023/01/18 03:10:13;;;;;;;14.05;11.75;;;;;;;;;;5063685;28;20217;-66
2023/01/18 03:12:46;;;;;;;14.57;12.70;;;;;;;;;;5068517;28;20227;-66
2023/01/18 03:15:16;;;;;;;15.57;13.50;;;;;;;;;;5066165;28;20213;-66
2023/01/18 03:17:48;;;;;;;16.52;13.35;;;;;;;;;;5069042;28;20217;-66
2023/01/18 03:20:16;;;;;;;17.90;14.93;;;;;;;;;;5065257;28;20208;-66
2023/01/18 03:25:30;;;;;;;15.88;13.77;;;;;;;;;;5060935;28;20255;-66
2023/01/18 03:33:44;;;;;;;16.50;14.13;;;;;;;;;;5070588;28;20223;-66
2023/01/18 03:36:12;;;;;;;16.23;13.27;;;;;;;;;;5062333;28;20215;-66
2023/01/18 03:38:41;;;;;;;14.70;12.80;;;;;;;;;;5063186;28;20547;-68
2023/01/18 03:41:08;;;;;;;14.02;12.25;;;;;;;;;;5073474;28;20223;-66
2023/01/18 03:43:36;;;;;;;13.27;11.88;;;;;;;;;;5064403;28;20230;-66
2023/01/18 03:46:03;;;;;;;14.52;12.32;;;;;;;;;;5071259;28;20390;-66
2023/01/18 03:48:31;;;;;;;14.43;11.57;;;;;;;;;;5071870;28;20208;-66
2023/01/18 03:50:59;;;;;;;13.82;11.70;;;;;;;;;;5064217;28;20519;-66
2023/01/18 03:53:31;;;;;;;13.15;11.63;;;;;;;;;;5063681;28;20212;-66
2023/01/18 03:56:00;;;;;;;12.50;11.02;;;;;;;;;;5065178;28;20228;-66
2023/01/18 03:58:30;;;;;;;13.02;11.43;;;;;;;;;;5060727;28;20477;-66
2023/01/18 04:00:56;;;;;;;14.68;11.95;;;;;;;;;;5064104;28;20212;-66
2023/01/18 04:03:23;;;;;;;12.70;11.02;;;;;;;;;;5069101;28;20216;-66
2023/01/18 04:05:50;;;;;;;13.40;11.23;;;;;;;;;;5066506;28;20228;-67
2023/01/18 04:08:20;;;;;;;13.18;10.57;;;;;;;;;;5064453;28;20228;-66
2023/01/18 04:10:46;;;;;;;13.77;11.20;;;;;;;;;;5067070;28;20220;-67
2023/01/18 04:13:13;;;;;;;12.45;10.30;;;;;;;;;;5067560;28;20523;-66
2023/01/18 04:15:39;;;;;;;11.52;10.32;;;;;;;;;;5068306;28;20208;-66
2023/01/18 04:18:05;;;;;;;12.00;10.75;;;;;;;;;;5059755;28;20233;-67
2023/01/18 04:20:32;;;;;;;10.90;9.63;;;;;;;;;;5067430;28;20216;-66
2023/01/18 04:22:59;;;;;;;11.00;9.90;;;;;;;;;;5068458;28;20212;-66
2023/01/18 04:25:26;;;;;;;12.45;10.05;;;;;;;;;;5062154;28;20215;-67
2023/01/18 04:27:52;;;;;;;11.57;9.95;;;;;;;;;;5064410;28;20291;-67
2023/01/18 04:30:18;;;;;;;11.88;9.73;;;;;;;;;;5073490;28;20219;-66
2023/01/18 04:32:45;;;;;;;11.77;10.48;;;;;;;;;;5064203;28;20543;-66
2023/01/18 04:35:11;;;;;;;11.23;10.10;;;;;;;;;;5068713;28;20222;-66
2023/01/18 04:37:37;;;;;;;11.35;10.18;;;;;;;;;;5072803;28;20217;-66
2023/01/18 04:40:06;;;;;;;13.52;9.93;;;;;;;;;;5057753;28;20247;-66
2023/01/18 04:42:32;;;;;;;13.40;11.63;;;;;;;;;;5058370;28;20223;-66
2023/01/18 04:44:59;;;;;;;14.98;11.15;;;;;;;;;;5065869;28;20520;-66
2023/01/18 04:47:27;;;;;;;13.50;11.57;;;;;;;;;;5059582;28;20431;-66
2023/01/18 04:49:54;;;;;;;14.15;11.82;;;;;;;;;;5064061;28;20287;-66
2023/01/18 04:52:20;;;;;;;14.30;12.05;;;;;;;;;;5066318;28;20221;-66
2023/01/18 04:54:46;;;;;;;16.52;11.88;;;;;;;;;;5068720;28;20246;-66
2023/01/18 04:57:14;;;;;;;13.25;11.32;;;;;;;;;;5067586;28;20453;-66
2023/01/18 04:59:44;;;;;;;13.88;11.98;;;;;;;;;;5062146;28;20287;-66
2023/01/18 05:02:11;;;;;;;16.33;13.07;;;;;;;;;;5062189;28;20217;-66
2023/01/18 05:04:37;;;;;;;15.77;12.68;;;;;;;;;;5064062;28;20216;-66
2023/01/18 05:07:03;;;;;;;14.73;12.50;;;;;;;;;;5067625;28;20296;-66
2023/01/18 05:09:30;;;;;;;16.30;12.43;;;;;;;;;;5065617;28;20219;-68
2023/01/18 05:11:56;;;;;;;16.25;13.20;;;;;;;;;;5068022;28;20472;-66
2023/01/18 05:14:23;;;;;;;15.35;13.25;;;;;;;;;;5067467;28;20213;-66
2023/01/18 05:16:50;;;;;;;16.42;12.68;;;;;;;;;;5068567;28;20267;-66
2023/01/18 05:19:16;;;;;;;14.80;12.25;;;;;;;;;;5070842;28;20224;-66
2023/01/18 05:21:42;;;;;;;12.93;11.52;;;;;;;;;;5061888;28;20255;-66
2023/01/18 05:24:08;;;;;;;15.70;12.38;;;;;;;;;;5065074;28;20270;-66
2023/01/18 05:26:35;;;;;;;12.95;11.30;;;;;;;;;;5063377;28;20282;-66
2023/01/18 05:29:01;;;;;;;14.07;12.20;;;;;;;;;;5062775;28;20225;-66
2023/01/18 05:31:29;;;;;;;16.23;13.15;;;;;;;;;;5067845;28;20220;-66
2023/01/18 05:33:56;;;;;;;12.60;11.30;;;;;;;;;;5064486;28;20524;-66
2023/01/18 05:36:22;;;;;;;12.50;11.07;;;;;;;;;;5064751;28;20221;-66
2023/01/18 05:38:49;;;;;;;14.98;12.23;;;;;;;;;;5065091;28;20258;-66
2023/01/18 05:41:15;;;;;;;14.50;12.52;;;;;;;;;;5068177;28;20220;-67
2023/01/18 05:43:41;;;;;;;18.02;11.50;;;;;;;;;;5058553;28;20581;-67
2023/01/18 05:46:07;;;;;;;12.63;11.27;;;;;;;;;;5065322;28;20217;-66
2023/01/18 05:48:35;;;;;;;15.85;12.23;;;;;;;;;;5067879;28;20212;-66
2023/01/18 05:51:06;;;;;;;15.75;11.48;;;;;;;;;;5066806;28;20216;-66
2023/01/18 05:53:32;;;;;;;14.60;12.05;;;;;;;;;;5065276;28;20216;-66
2023/01/18 05:56:00;;;;;;;14.00;12.50;;;;;;;;;;5067310;28;20259;-66
2023/01/18 05:58:27;;;;;;;14.95;12.98;;;;;;;;;;5065789;28;20258;-66
2023/01/18 06:00:53;;;;;;;12.07;10.48;;;;;;;;;;5060792;28;20291;-66
2023/01/18 06:03:20;;;;;;;11.98;10.13;;;;;;;;;;5059202;28;20217;-66
2023/01/18 06:05:48;;;;;;;8.63;7.93;;;;;;;;;;5067775;28;20216;-66
2023/01/18 06:08:14;;;;;;;9.68;8.70;;;;;;;;;;5070418;28;20217;-66
2023/01/18 06:10:40;;;;;;;8.40;7.60;;;;;;;;;;5075325;28;20539;-66
2023/01/18 06:13:07;;;;;;;8.57;7.80;;;;;;;;;;5064215;28;20212;-66
2023/01/18 06:15:33;;;;;;;8.63;7.70;;;;;;;;;;5075303;28;20200;-66
2023/01/18 06:17:59;;;;;;;8.05;7.35;;;;;;;;;;5072909;28;20223;-66
2023/01/18 06:20:29;;;;;;;8.25;7.60;;;;;;;;;;5063203;28;20232;-66
2023/01/18 06:22:57;;;;;;;7.18;6.43;;;;;;;;;;5069598;28;20524;-66
2023/01/18 06:25:23;;;;;;;5.93;5.43;;;;;;;;;;5066971;28;20212;-66
2023/01/18 06:27:49;;;;;;;6.35;5.75;;;;;;;;;;5069323;28;20540;-66
2023/01/18 06:30:16;;;;;;;5.82;5.32;;;;;;;;;;5071589;28;20212;-66
2023/01/18 06:32:42;;;;;;;5.57;5.18;;;;;;;;;;5062368;28;20213;-67
2023/01/18 06:35:09;;;;;;;6.53;5.95;;;;;;;;;;5067781;28;20247;-66
2023/01/18 06:37:35;;;;;;;6.10;5.60;;;;;;;;;;5072979;28;20213;-66
2023/01/18 06:40:03;;;;;;;5.85;5.50;;;;;;;;;;5075315;28;20228;-66
2023/01/18 06:42:30;;;;;;;5.80;5.25;;;;;;;;;;5068276;28;20213;-66
2023/01/18 06:44:56;;;;;;;5.78;5.38;;;;;;;;;;5070771;28;20299;-66
2023/01/18 06:47:23;;;;;;;6.32;5.82;;;;;;;;;;5067456;28;20571;-69
2023/01/18 06:49:49;;;;;;;6.30;5.70;;;;;;;;;;5063256;28;20224;-68
2023/01/18 06:52:15;;;;;;;6.03;5.40;;;;;;;;;;5068965;28;20223;-68
2023/01/18 06:54:43;;;;;;;6.30;5.80;;;;;;;;;;5068643;28;20213;-68
2023/01/18 06:57:11;;;;;;;5.90;5.40;;;;;;;;;;5070227;28;20231;-68
2023/01/18 06:59:37;;;;;;;6.43;5.70;;;;;;;;;;5069870;28;20389;-68
2023/01/18 07:02:04;;;;;;;7.00;5.38;;;;;;;;;;5069161;28;20216;-68
2023/01/18 07:04:31;;;;;;;6.57;5.97;;;;;;;;;;5070459;28;20487;-68
2023/01/18 07:06:58;;;;;;;5.90;5.50;;;;;;;;;;5066016;28;20213;-68
2023/01/18 07:09:24;;;;;;;6.30;5.72;;;;;;;;;;5068521;28;20212;-56
2023/01/18 07:11:50;;;;;;;6.20;5.70;;;;;;;;;;5068931;28;20224;-55
2023/01/18 07:14:18;;;;;;;6.40;5.90;;;;;;;;;;5069785;28;20593;-56
2023/01/18 07:16:44;;;;;;;8.00;5.72;;;;;;;;;;5067304;28;20531;-55
2023/01/18 07:19:10;;;;;;;5.88;5.38;;;;;;;;;;5068951;28;20228;-57
2023/01/18 07:21:37;;;;;;;8.73;6.32;;;;;;;;;;5079200;28;20215;-56
2023/01/18 07:24:03;;;;;;;6.05;5.65;;;;;;;;;;5077003;28;20216;-57
2023/01/18 07:26:30;;;;;;;7.28;5.32;;;;;;;;;;5074324;28;20254;-57
2023/01/18 07:28:56;;;;;;;6.93;5.47;;;;;;;;;;5077407;28;20487;-57
2023/01/18 07:31:23;;;;;;;5.07;4.78;;;;;;;;;;5070350;28;20388;-57
2023/01/18 07:33:50;;;;;;;4.88;4.57;;;;;;;;;;5067332;28;20278;-57
2023/01/18 07:36:16;;;;;;;5.78;5.28;;;;;;;;;;5065273;28;20213;-56
2023/01/18 07:38:43;;;;;;;6.85;5.60;;;;;;;;;;5063987;28;20208;-56
2023/01/18 07:41:10;;;;;;;5.53;5.13;;;;;;;;;;5064017;28;20247;-57
2023/01/18 07:43:37;;;;;;;12.57;6.13;;;;;;;;;;5072648;28;20208;-57
2023/01/18 07:46:03;;;;;;;6.68;6.00;;;;;;;;;;5061801;28;20484;-56
2023/01/18 07:48:32;;;;;;;8.57;7.00;;;;;;;;;;5068175;28;20217;-57
2023/01/18 07:50:58;;;;;;;7.85;7.10;;;;;;;;;;5078283;28;20524;-58
2023/01/18 07:53:26;;;;;;;8.90;7.85;;;;;;;;;;5076079;28;20213;-57
2023/01/18 07:55:52;;;;;;;9.90;7.80;;;;;;;;;;5061013;28;20216;-57
2023/01/18 07:58:18;;;;;;;11.35;9.82;;;;;;;;;;5069016;28;20258;-56
2023/01/18 08:00:45;;;;;;;9.73;8.75;;;;;;;;;;5059746;28;20229;-57
2023/01/18 08:03:13;;;;;;;10.13;8.88;;;;;;;;;;5083168;28;20449;-57
2023/01/18 08:05:41;;;;;;;11.00;9.18;;;;;;;;;;5082621;28;20592;-57
2023/01/18 08:08:08;;;;;;;10.52;9.43;;;;;;;;;;5067427;28;20209;-57
2023/01/18 08:10:34;;;;;;;11.90;9.32;;;;;;;;;;5063154;28;20399;-57
2023/01/18 08:13:01;;;;;;;10.02;8.85;;;;;;;;;;5060933;28;20208;-57
2023/01/18 08:15:28;;;;;;;10.18;9.05;;;;;;;;;;5077637;28;20216;-57
2023/01/18 08:17:54;;;;;;;12.52;9.15;;;;;;;;;;5072966;28;20201;-57
2023/01/18 08:20:21;;;;;;;12.20;8.98;;;;;;;;;;5072417;28;20262;-57
2023/01/18 08:22:54;;;;;;;9.05;8.20;;;;;;;;;;5059726;28;20220;-57
2023/01/18 08:25:20;;;;;;;8.45;7.70;;;;;;;;;;5066494;28;20389;-57
2023/01/18 08:27:46;;;;;;;8.68;7.88;;;;;;;;;;5072176;28;20232;-56
2023/01/18 08:30:13;;;;;;;9.23;7.88;;;;;;;;;;5065927;28;20213;-54
2023/01/18 08:32:39;;;;;;;8.32;7.53;;;;;;;;;;5068359;28;20628;-57
2023/01/18 08:35:06;;;;;;;10.68;9.57;;;;;;;;;;5080042;28;20274;-57
2023/01/18 08:37:32;;;;;;;9.32;8.43;;;;;;;;;;5077772;28;20547;-56
2023/01/18 08:40:00;;;;;;;11.35;8.70;;;;;;;;;;5079314;28;20220;-55
2023/01/18 08:42:26;;;;;;;11.50;8.40;;;;;;;;;;5069214;28;20215;-57
2023/01/18 08:44:53;;;;;;;8.90;7.80;;;;;;;;;;5080472;28;20251;-56
2023/01/18 08:47:19;;;;;;;8.43;7.70;;;;;;;;;;5082814;28;20455;-58
2023/01/18 08:49:46;;;;;;;9.00;8.10;;;;;;;;;;5079764;28;20209;-58
2023/01/18 08:52:14;;;;;;;8.95;7.97;;;;;;;;;;5056752;28;20212;-58
2023/01/18 08:54:40;;;;;;;11.15;8.45;;;;;;;;;;5063115;28;20200;-58
2023/01/18 08:57:08;;;;;;;9.75;8.75;;;;;;;;;;5061013;28;20213;-57
2023/01/18 08:59:34;;;;;;;10.00;8.48;;;;;;;;;;5075128;28;20433;-58
2023/01/18 09:02:01;;;;;;;9.43;8.15;;;;;;;;;;5075400;28;20238;-57
2023/01/18 09:04:28;;;;;;;9.60;8.57;;;;;;;;;;5057314;28;20528;-57
2023/01/18 09:06:55;;;;;;;8.93;8.07;;;;;;;;;;5080177;28;20232;-56
2023/01/18 09:09:21;;;;;;;9.15;8.23;;;;;;;;;;5059949;28;20221;-57
2023/01/18 09:11:50;;;;;;;9.00;8.10;;;;;;;;;;5078802;28;20524;-55
2023/01/18 09:14:17;;;;;;;9.27;8.38;;;;;;;;;;5073487;28;20212;-55
2023/01/18 09:16:44;;;;;;;9.30;7.78;;;;;;;;;;5071161;28;20218;-56
2023/01/18 09:19:10;;;;;;;7.40;6.65;;;;;;;;;;5073134;28;20539;-56
2023/01/18 09:21:36;;;;;;;8.07;7.35;;;;;;;;;;5071566;28;20474;-56
2023/01/18 09:24:02;;;;;;;9.40;8.50;;;;;;;;;;5066091;28;20220;-57
2023/01/18 09:26:29;;;;;;;10.63;7.72;;;;;;;;;;5075841;28;20209;-56
2023/01/18 09:28:55;;;;;;;8.18;7.38;;;;;;;;;;5070030;28;20224;-57
2023/01/18 09:31:24;;;;;;;7.97;7.28;;;;;;;;;;5068506;28;20205;-57
2023/01/18 09:33:50;;;;;;;9.00;7.57;;;;;;;;;;5063167;28;20208;-57
2023/01/18 09:36:20;;;;;;;8.77;7.97;;;;;;;;;;5065471;28;20290;-57
2023/01/18 09:38:46;;;;;;;8.95;8.05;;;;;;;;;;5058237;28;20251;-57
2023/01/18 09:41:21;;;;;;;8.05;7.22;;;;;;;;;;5063781;28;20426;-56
2023/01/18 09:43:48;;;;;;;8.40;7.60;;;;;;;;;;5071677;28;20415;-55
2023/01/18 09:46:17;;;;;;;10.98;7.30;;;;;;;;;;5068544;28;20212;-55
2023/01/18 09:48:48;;;;;;;8.10;7.30;;;;;;;;;;5069902;28;20491;-57
2023/01/18 09:51:19;;;;;;;9.23;8.32;;;;;;;;;;5074251;28;20213;-56
2023/01/18 09:53:50;;;;;;;9.25;8.45;;;;;;;;;;5066104;28;20395;-57
2023/01/18 09:56:20;;;;;;;12.60;9.13;;;;;;;;;;5075996;28;20260;-56
2023/01/18 09:58:53;;;;;;;9.85;8.30;;;;;;;;;;5066080;28;20448;-56
2023/01/18 10:01:21;;;;;;;9.70;8.70;;;;;;;;;;5072628;28;20636;-55
2023/01/18 10:03:52;;;;;;;8.48;7.68;;;;;;;;;;5071013;28;20209;-57
2023/01/18 10:06:21;;;;;;;8.38;7.45;;;;;;;;;;5077936;28;20211;-57
2023/01/18 10:08:52;;;;;;;8.02;7.22;;;;;;;;;;5066017;28;20411;-56
2023/01/18 10:11:21;;;;;;;7.75;6.97;;;;;;;;;;5061492;28;20521;-57
2023/01/18 10:13:50;;;;;;;11.13;7.57;;;;;;;;;;5066569;28;20209;-55
2023/01/18 10:16:19;;;;;;;8.23;7.53;;;;;;;;;;5086145;28;20495;-57
2023/01/18 10:18:47;;;;;;;7.28;6.55;;;;;;;;;;5076890;28;20200;-57
2023/01/18 10:21:23;;;;;;;7.95;7.28;;;;;;;;;;5069324;28;20229;-56
2023/01/18 10:23:57;;;;;;;7.85;7.15;;;;;;;;;;5062716;28;20205;-57
2023/01/18 10:26:26;;;;;;;8.55;7.53;;;;;;;;;;5066686;28;20219;-57
2023/01/18 10:28:55;;;;;;;7.30;6.60;;;;;;;;;;5058831;28;20232;-55
2023/01/18 10:31:24;;;;;;;8.00;7.30;;;;;;;;;;5066046;28;20233;-56
2023/01/18 10:33:53;;;;;;;9.20;7.47;;;;;;;;;;5069629;28;20519;-55
2023/01/18 10:36:22;;;;;;;8.27;7.45;;;;;;;;;;5066114;28;20213;-57
2023/01/18 10:38:50;;;;;;;8.88;7.72;;;;;;;;;;5070527;28;20209;-57
2023/01/18 10:41:19;;;;;;;7.68;5.97;;;;;;;;;;5065902;28;20282;-57
2023/01/18 10:43:45;;;;;;;7.03;6.43;;;;;;;;;;5058451;28;20230;-57
2023/01/18 10:46:13;;;;;;;7.07;6.47;;;;;;;;;;5075268;28;20518;-55
2023/01/18 10:48:44;;;;;;;7.28;6.40;;;;;;;;;;5082681;28;20208;-56
2023/01/18 10:51:23;;;;;;;7.00;6.40;;;;;;;;;;5069496;28;21117;-56
2023/01/18 10:53:50;;;;;;;8.35;7.55;;;;;;;;;;5056765;28;20209;-57
2023/01/18 10:56:17;;;;;;;9.93;7.72;;;;;;;;;;5072741;28;20213;-56
2023/01/18 10:58:44;;;;;;;7.55;6.82;;;;;;;;;;5083791;28;20219;-58
2023/01/18 11:01:13;;;;;;;12.07;7.28;;;;;;;;;;5066774;28;20220;-55
2023/01/18 11:03:45;;;;;;;7.85;7.13;;;;;;;;;;5065187;28;20209;-55
2023/01/18 11:06:12;;;;;;;9.48;7.97;;;;;;;;;;5066931;28;20440;-54
2023/01/18 11:08:38;;;;;;;9.18;8.27;;;;;;;;;;5066851;28;20542;-56
2023/01/18 11:11:08;;;;;;;9.45;7.45;;;;;;;;;;5069257;28;20223;-55
2023/01/18 11:13:42;;;;;;;7.85;7.13;;;;;;;;;;5063062;28;20205;-56
2023/01/18 11:16:19;;;;;;;12.15;7.25;;;;;;;;;;5062022;28;20408;-55
2023/01/18 11:18:56;;;;;;;8.27;6.97;;;;;;;;;;5077179;28;20208;-56
2023/01/18 11:21:23;;;;;;;10.27;8.10;;;;;;;;;;5067116;28;20410;-56
2023/01/18 11:23:50;;;;;;;8.52;7.68;;;;;;;;;;5067220;28;20219;-57
2023/01/18 11:26:19;;;;;;;10.27;6.53;;;;;;;;;;5077146;28;20213;-57
2023/01/18 11:28:48;;;;;;;6.55;5.78;;;;;;;;;;5066137;28;20225;-57
2023/01/18 11:31:16;;;;;;;8.30;5.95;;;;;;;;;;5065866;28;20270;-57
2023/01/18 11:33:49;;;;;;;9.32;7.22;;;;;;;;;;5056457;28;20299;-56
2023/01/18 11:36:15;;;;;;;10.57;7.05;;;;;;;;;;5060875;28;20388;-56
2023/01/18 11:38:41;;;;;;;10.68;6.85;;;;;;;;;;5060099;28;20466;-56
2023/01/18 11:41:13;;;;;;;8.60;6.90;;;;;;;;;;5068748;28;20230;-57
2023/01/18 11:43:42;;;;;;;9.50;6.90;;;;;;;;;;5068517;28;20219;-58
2023/01/18 11:46:15;;;;;;;8.93;7.22;;;;;;;;;;5069987;28;20208;-58
2023/01/18 11:48:43;;;;;;;8.10;7.30;;;;;;;;;;5079503;28;20212;-58
2023/01/18 11:51:14;;;;;;;8.52;6.38;;;;;;;;;;5069150;28;20233;-60
2023/01/18 11:53:43;;;;;;;7.28;6.15;;;;;;;;;;5079677;28;20407;-58
2023/01/18 11:56:13;;;;;;;10.35;6.78;;;;;;;;;;5066036;28;20240;-56
2023/01/18 11:58:41;;;;;;;9.52;7.18;;;;;;;;;;5066517;28;20221;-55
2023/01/18 12:01:20;;;;;;;9.35;7.88;;;;;;;;;;5072534;28;20272;-57
2023/01/18 12:03:49;;;;;;;8.30;7.50;;;;;;;;;;5073873;28;20415;-57
2023/01/18 12:06:22;;;;;;;19.08;9.63;;;;;;;;;;5070736;28;20278;-58
2023/01/18 12:08:54;;;;;;;16.63;10.10;;;;;;;;;;5070632;28;20255;-57
2023/01/18 12:11:30;;;;;;;18.67;10.88;;;;;;;;;;5070326;28;20431;-55
2023/01/18 12:14:02;;;;;;;8.95;7.82;;;;;;;;;;5060520;28;20250;-57
2023/01/18 12:16:34;;;;;;;17.20;7.22;;;;;;;;;;5068301;28;20384;-57
2023/01/18 12:19:10;;;;;;;8.02;7.10;;;;;;;;;;5064111;28;20244;-57
2023/01/18 12:21:43;;;;;;;10.85;7.13;;;;;;;;;;5072313;28;20228;-57
2023/01/18 12:24:16;;;;;;;9.52;7.03;;;;;;;;;;5065908;28;20216;-57
2023/01/18 12:26:47;;;;;;;10.55;7.22;;;;;;;;;;5059045;28;20212;-57
2023/01/18 12:29:41;;;;;;;9.07;6.65;;;;;;;;;;5066251;28;20241;-56
2023/01/18 12:32:19;;;;;;;13.25;6.57;;;;;;;;;;5018441;28;20208;-56
2023/01/18 12:34:54;;;;;;;10.27;7.30;;;;;;;;;;5064180;28;20223;-57
2023/01/18 12:37:26;;;;;;;7.70;6.40;;;;;;;;;;5073968;28;20429;-57
2023/01/18 12:39:56;;;;;;;8.27;7.18;;;;;;;;;;5063504;28;20205;-56
2023/01/18 12:42:28;;;;;;;8.80;6.63;;;;;;;;;;5063469;28;20237;-57
2023/01/18 12:45:05;;;;;;;9.50;6.15;;;;;;;;;;5072454;28;20208;-57
2023/01/18 12:47:38;;;;;;;8.13;7.22;;;;;;;;;;5075044;28;20212;-56
2023/01/18 12:50:07;;;;;;;9.65;6.60;;;;;;;;;;5082379;28;20214;-56
2023/01/18 12:52:38;;;;;;;6.95;5.85;;;;;;;;;;5072044;28;20234;-55
2023/01/18 12:55:06;;;;;;;13.18;6.15;;;;;;;;;;5069738;28;20262;-57
2023/01/18 12:57:33;;;;;;;10.18;6.57;;;;;;;;;;5064860;28;20212;-57
2023/01/18 13:00:05;;;;;;;6.30;5.45;;;;;;;;;;5074304;28;20444;-56
2023/01/18 13:02:33;;;;;;;7.97;6.45;;;;;;;;;;5070121;28;20224;-57
2023/01/18 13:05:03;;;;;;;8.65;6.50;;;;;;;;;;5063222;28;20493;-57
2023/01/18 13:07:32;;;;;;;7.82;5.53;;;;;;;;;;5069511;28;20216;-57
2023/01/18 13:09:58;;;;;;;7.93;6.28;;;;;;;;;;5076037;28;20458;-58
2023/01/18 13:12:25;;;;;;;10.57;6.50;;;;;;;;;;5071050;28;20205;-58
2023/01/18 13:14:56;;;;;;;8.30;6.25;;;;;;;;;;5060213;28;20512;-57
2023/01/18 13:17:25;;;;;;;8.48;6.50;;;;;;;;;;5059448;28;20528;-58
2023/01/18 13:19:57;;;;;;;9.35;5.60;;;;;;;;;;5071199;28;20270;-57
2023/01/18 13:22:30;;;;;;;8.38;6.05;;;;;;;;;;5076221;28;20283;-59
2023/01/18 13:25:26;;;;;;;10.82;7.05;;;;;;;;;;5065970;28;20571;-58
2023/01/18 13:27:56;;;;;;;9.23;5.90;;;;;;;;;;5024725;28;20226;-59
2023/01/18 13:30:23;;;;;;;9.55;6.88;;;;;;;;;;5053677;28;20219;-58
2023/01/18 13:32:50;;;;;;;6.32;5.05;;;;;;;;;;5066777;28;20205;-59
2023/01/18 13:35:18;;;;;;;6.18;5.15;;;;;;;;;;5073457;28;20396;-56
2023/01/18 13:37:47;;;;;;;8.95;6.15;;;;;;;;;;5075003;28;20233;-55
2023/01/18 13:40:24;;;;;;;8.23;5.47;;;;;;;;;;5084405;28;20221;-56
2023/01/18 13:42:50;;;;;;;7.82;5.88;;;;;;;;;;5068353;28;20220;-57
2023/01/18 13:45:19;;;;;;;5.47;4.95;;;;;;;;;;5077671;28;20213;-57
2023/01/18 13:47:50;;;;;;;6.97;5.30;;;;;;;;;;5075176;28;20209;-57
2023/01/18 13:50:35;;;;;;;6.43;5.22;;;;;;;;;;5075194;28;20375;-56
2023/01/18 13:53:22;;;;;;;7.10;5.68;;;;;;;;;;5073848;28;20432;-56
2023/01/18 13:55:53;;;;;;;8.68;5.30;;;;;;;;;;5063383;28;20224;-56
2023/01/18 13:58:20;;;;;;;6.45;5.00;;;;;;;;;;5073680;28;20465;-57
2023/01/18 14:00:47;;;;;;;6.82;5.78;;;;;;;;;;5068443;28;20543;-55
2023/01/18 14:03:16;;;;;;;11.15;6.13;;;;;;;;;;5077622;28;20212;-57
2023/01/18 14:05:43;;;;;;;9.77;5.22;;;;;;;;;;5081154;28;20379;-57
2023/01/18 14:08:18;;;;;;;6.43;5.35;;;;;;;;;;5089065;28;20418;-55
2023/01/18 14:10:47;;;;;;;8.70;5.60;;;;;;;;;;5066706;28;20223;-56
2023/01/18 14:13:14;;;;;;;8.57;5.13;;;;;;;;;;5065196;28;20209;-57
2023/01/18 14:15:47;;;;;;;10.02;5.32;;;;;;;;;;5082084;28;20597;-57
2023/01/18 14:18:17;;;;;;;7.13;4.63;;;;;;;;;;5071184;28;20254;-57
2023/01/18 14:20:57;;;;;;;6.72;4.90;;;;;;;;;;5074505;28;20546;-58
2023/01/18 14:23:28;;;;;;;10.10;4.70;;;;;;;;;;5060574;28;20416;-58
2023/01/18 14:25:58;;;;;;;8.60;4.85;;;;;;;;;;5081476;28;20204;-58
2023/01/18 14:28:27;;;;;;;5.90;4.97;;;;;;;;;;5062196;28;20552;-58
2023/01/18 14:30:55;;;;;;;8.85;4.97;;;;;;;;;;5068043;28;20220;-55
2023/01/18 14:33:25;;;;;;;5.10;4.07;;;;;;;;;;5080859;28;20216;-58
2023/01/18 14:35:52;;;;;;;7.97;4.38;;;;;;;;;;5080301;28;20208;-58
2023/01/18 14:38:18;;;;;;;5.30;4.25;;;;;;;;;;5063100;28;20213;-57
2023/01/18 14:40:46;;;;;;;7.20;4.55;;;;;;;;;;5075010;28;20209;-57
2023/01/18 14:43:15;;;;;;;8.45;4.55;;;;;;;;;;5069372;28;20274;-58
2023/01/18 14:45:47;;;;;;;5.80;4.00;;;;;;;;;;5074945;28;20217;-58
2023/01/18 14:48:17;;;;;;;5.53;4.68;;;;;;;;;;5075072;28;20219;-58
2023/01/18 14:50:45;;;;;;;6.45;4.47;;;;;;;;;;5072088;28;20299;-58
2023/01/18 14:53:14;;;;;;;9.07;4.72;;;;;;;;;;5074245;28;20209;-58
2023/01/18 14:55:40;;;;;;;7.15;4.80;;;;;;;;;;5071573;28;20220;-58
2023/01/18 14:58:15;;;;;;;5.28;4.60;;;;;;;;;;5067554;28;20578;-58
2023/01/18 15:00:43;;;;;;;8.13;4.97;;;;;;;;;;5061938;28;20215;-57
2023/01/18 15:03:11;;;;;;;7.75;5.45;;;;;;;;;;5070263;28;20236;-58
2023/01/18 15:05:38;;;;;;;7.18;5.55;;;;;;;;;;5075835;28;20228;-58
2023/01/18 15:08:05;;;;;;;7.80;5.63;;;;;;;;;;5063136;28;20239;-58
2023/01/18 15:10:34;;;;;;;7.25;6.00;;;;;;;;;;5079846;28;20211;-58
2023/01/18 15:13:01;;;;;;;8.07;5.43;;;;;;;;;;5073805;28;20213;-58